< < Back
Terminal Aerodrome Forecast


Current Version              Previous Versions:   1  2  3  4  5  6  7  8  9  

Terminal Aerodrome Forecast

258
FTUS42 KCHS 040712 AAA
TAFCHS
TAF AMD
KCHS 040712Z 0407/0506 VRB03KT P6SM MIFG SCT080
     FM041300 10006KT P6SM SCT080
     FM041700 13012KT P6SM SCT050
     FM050200 VRB04KT P6SM SKC=

Latest METAR

089
SAUS80 KWBC 041700 RRA
MTRCHS
METAR KCHS 041656Z 14012KT 10SM SCT045 26/13 A3033 RMK AO2 SLP270
T02610128


USA.gov is the U.S. government's official web portal to all federal, state and local government web resources and services.